Pagina principale
METAR-TAF:

METAR-TAF

Aeroporti :

La Chaux-de-Fonds, Svizzera

latitudine: 47-05-03N, longitudine: 006-47-37E, altezza: 1027 m

Osservazione

Il bollettino è stato emesso 29 minuti fa, alle 02:50 UTC
Vento 4 kt da sud/sud-ovest
Temperature 7°C
Umidità 93%
Pressione 1027 hPa
Visibilità 10 km o più
Cielo coperto ad un'altezza di 1000 ft
pioviggine debole

METAR: LSGC 240250Z AUTO 21004KT 9999 -DZ OVC010 07/06 Q1027

Ora: 04:19 (03:19 UTC)

Previsione

Il bollettino è stato emesso 12 ore e 54 minuti fa, alle 14:25 UTC
Previsione valida dal 23 alle 15 UTC al 23 alle 24 UTC
Vento 15 kt da ovest/sud-ovest con raffiche fino a 25 kt
Visibilità 10 km o più
Nubi sparse ad un'altezza di 2000 ft
Nuvoloso ad un'altezza di 4000 ft
Evoluzione graduale
dal 23 alle 19 UTC al 23 alle 21 UTC
Vento 10 kt da ovest/sud-ovest

TAF: LSGC 231425Z 2315/2324 24015G25KT 9999 SCT020 BKN040 BECMG 2319/2321 24010KT

Osservazioni e previsioni meteorologiche di più di 4000 aeroporti (messaggi METAR e TAF).

Le stazioni disponibili sono rappresentate dai dischi gialli e rossi sulla carta.

Puntare il mouse per vedere il nome della stazione.

Clicca sopra per visualizzare le osservazioni e previsioni meteorologiche.

Per cambiare la mappa : fare clic sui pulsanti verdi con una croce nera per ingrandire, il pulsante verde con un trattino per diminuire, o sulla freccia verde per le mappe adiacenti.


METAR-TAF: